Madisonville, Kentucky
Current Conditions -  °F | °C
As of 11:35 PM on Wednesday 26 Nov 2014 (Local Time) from K2I0 Reporting Station
Haze Haze  
Wind Chill: 30°   Ceiling: 400
Heat Index: 35°   Visibility: 4mi
Dew Point: 35°   Wind: 6mph
Humidity: 100%   Direction: 330°NNW
Pressure: 30.09"   Gusts: NA
Location:  37.33°N, 87.5°W
Report Text: K2I0 270535Z AUTO 33005KT 4SM BR OVC004 02/02 A3009 RMK AO2 T00190019
Loading
Personal Weather Stations






























Interactive Weather Map New forecast layout! Learn more

10-Day Weather Forecast

Advertisements
Track Severe Weather on mobile